createdAt,value
2023-03-01T00:01:52.427Z,102049.91
2023-03-01T00:04:53.903Z,102047.06
2023-03-01T00:07:55.376Z,102046.94
2023-03-01T00:11:17.810Z,102049.56
2023-03-01T00:14:19.384Z,102045.97
2023-03-01T00:17:20.923Z,102046.84
2023-03-01T00:20:22.384Z,102051.38
2023-03-01T00:23:24.562Z,102050.53
2023-03-01T00:26:27.119Z,102058.53
2023-03-01T00:29:28.754Z,102054.09
2023-03-01T00:32:30.434Z,102051.50
2023-03-01T00:35:34.000Z,102056.94
2023-03-01T00:38:39.500Z,102049.75
2023-03-01T00:41:41.444Z,102047.19
2023-03-01T00:44:43.965Z,102046.19
2023-03-01T00:47:45.611Z,102043.38
2023-03-01T00:50:47.314Z,102033.50
2023-03-01T00:53:52.333Z,102036.09
2023-03-01T00:56:53.817Z,102017.13
2023-03-01T00:59:55.300Z,102022.78
2023-03-01T01:02:56.817Z,102029.06
2023-03-01T01:05:58.329Z,102034.50
2023-03-01T01:09:02.474Z,102031.78
2023-03-01T01:12:04.529Z,102033.75
2023-03-01T01:15:06.549Z,102029.19
2023-03-01T01:18:08.415Z,102028.31
2023-03-01T01:21:17.579Z,102037.19
2023-03-01T01:24:19.991Z,102036.34
2023-03-01T01:27:21.533Z,102033.63
2023-03-01T01:30:23.042Z,102028.22
2023-03-01T01:33:24.593Z,102022.91
2023-03-01T01:36:26.217Z,102010.22
2023-03-01T01:39:27.675Z,102009.34
2023-03-01T01:42:29.230Z,102005.78
2023-03-01T01:45:36.148Z,102001.22
2023-03-01T01:48:44.482Z,102012.06
2023-03-01T01:51:49.714Z,101993.09
2023-03-01T01:55:02.262Z,102004.78
2023-03-01T01:58:06.764Z,102000.38
2023-03-01T02:01:08.485Z,102005.78
2023-03-01T02:04:10.298Z,101998.66
2023-03-01T02:07:19.994Z,102005.78
2023-03-01T02:10:24.269Z,101998.66
2023-03-01T02:13:26.435Z,101993.31
2023-03-01T02:16:30.812Z,101993.31
2023-03-01T02:20:00.926Z,101995.03
2023-03-01T02:23:02.461Z,101988.91
2023-03-01T02:26:21.601Z,101985.19
2023-03-01T02:29:24.763Z,101980.78
2023-03-01T02:32:26.836Z,101974.38
2023-03-01T02:35:28.541Z,101974.38
2023-03-01T02:38:30.893Z,101976.22
2023-03-01T02:41:37.561Z,101974.38
2023-03-01T02:44:39.219Z,101979.69
2023-03-01T02:47:40.687Z,101978.16
2023-03-01T02:51:17.359Z,101962.78
2023-03-01T02:54:26.482Z,101954.78
2023-03-01T02:57:29.787Z,101959.19
2023-03-01T03:00:40.422Z,101949.22
2023-03-01T03:03:42.799Z,101954.63
2023-03-01T03:06:49.418Z,101959.97
2023-03-01T03:09:50.882Z,101963.63
2023-03-01T03:12:58.197Z,101959.97
2023-03-01T03:15:59.875Z,101944.66
2023-03-01T03:19:05.968Z,101944.78
2023-03-01T03:22:09.900Z,101938.53
2023-03-01T03:25:11.490Z,101932.22
2023-03-01T03:28:13.095Z,101934.91
2023-03-01T03:31:14.658Z,101933.22
2023-03-01T03:34:18.866Z,101930.50
2023-03-01T03:37:39.116Z,101931.25
2023-03-01T03:40:41.830Z,101928.53
2023-03-01T03:43:44.631Z,101927.69
2023-03-01T03:46:46.136Z,101920.50
2023-03-01T03:49:47.602Z,101915.09
2023-03-01T03:52:49.213Z,101920.50
2023-03-01T03:55:52.430Z,101925.94
2023-03-01T03:58:53.982Z,101929.50
2023-03-01T04:01:55.426Z,101927.78
2023-03-01T04:04:56.934Z,101923.97
2023-03-01T04:08:07.878Z,101930.25
2023-03-01T04:11:28.054Z,101925.69
2023-03-01T04:14:29.503Z,101936.31
2023-03-01T04:17:31.087Z,101931.63
2023-03-01T04:20:36.077Z,101932.38
2023-03-01T04:23:38.794Z,101925.00
2023-03-01T04:26:40.386Z,101933.75
2023-03-01T04:29:41.897Z,101931.78
2023-03-01T04:32:43.577Z,101936.13
2023-03-01T04:35:45.337Z,101942.28
2023-03-01T04:38:48.387Z,101943.03
2023-03-01T04:41:49.896Z,101945.63
2023-03-01T04:44:52.207Z,101949.06
2023-03-01T04:47:53.696Z,101946.38
2023-03-01T04:50:55.265Z,101940.09
2023-03-01T04:53:56.854Z,101938.22
2023-03-01T04:56:58.811Z,101931.94
2023-03-01T05:00:00.343Z,101926.53
2023-03-01T05:03:02.455Z,101930.09
2023-03-01T05:06:04.136Z,101940.09
2023-03-01T05:09:06.118Z,101935.66
2023-03-01T05:12:07.593Z,101922.22
2023-03-01T05:15:09.473Z,101928.63
2023-03-01T05:18:12.261Z,101932.31
2023-03-01T05:21:16.926Z,101917.03
2023-03-01T05:24:18.614Z,101916.28
2023-03-01T05:27:22.978Z,101910.88
2023-03-01T05:30:24.458Z,101909.50
2023-03-01T05:33:26.878Z,101912.22
2023-03-01T05:36:28.449Z,101915.03
2023-03-01T05:39:30.816Z,101921.44
2023-03-01T05:42:32.304Z,101916.97
2023-03-01T05:45:33.913Z,101911.56
2023-03-01T05:48:35.415Z,101906.13
2023-03-01T05:51:37.108Z,101908.84
2023-03-01T05:54:39.476Z,101916.97
2023-03-01T05:57:40.994Z,101915.16
2023-03-01T06:00:44.648Z,101917.63
2023-03-01T06:03:46.152Z,101909.50
2023-03-01T06:06:47.662Z,101915.66
2023-03-01T06:09:49.118Z,101918.25
2023-03-01T06:12:50.620Z,101922.47
2023-03-01T06:15:52.924Z,101923.94
2023-03-01T06:18:54.632Z,101917.19
2023-03-01T06:21:56.120Z,101916.09
2023-03-01T06:24:57.607Z,101926.44
2023-03-01T06:27:59.147Z,101915.25
2023-03-01T06:31:00.655Z,101914.25
2023-03-01T06:34:02.703Z,101909.69
2023-03-01T06:37:06.069Z,101909.31
2023-03-01T06:40:12.844Z,101912.91
2023-03-01T06:43:14.523Z,101914.00
2023-03-01T06:46:16.076Z,101914.00
2023-03-01T06:49:18.721Z,101921.16
2023-03-01T06:52:20.201Z,101923.03
2023-03-01T06:55:21.780Z,101922.28
2023-03-01T06:58:23.539Z,101917.72
2023-03-01T07:01:25.155Z,101922.28
2023-03-01T07:04:29.434Z,101919.56
2023-03-01T07:07:30.923Z,101922.28
2023-03-01T07:10:32.494Z,101912.28
2023-03-01T07:13:34.011Z,101911.69
2023-03-01T07:16:35.925Z,101908.22
2023-03-01T07:19:37.637Z,101905.50
2023-03-01T07:22:41.936Z,101905.38
2023-03-01T07:25:43.410Z,101908.06
2023-03-01T07:28:45.035Z,101901.53
2023-03-01T07:31:46.648Z,101900.59
2023-03-01T07:34:48.548Z,101896.88
2023-03-01T07:37:50.037Z,101897.88
2023-03-01T07:40:51.687Z,101895.16
2023-03-01T07:43:53.194Z,101894.31
2023-03-01T07:46:57.192Z,101888.88
2023-03-01T07:49:58.778Z,101890.69
2023-03-01T07:53:00.313Z,101887.88
2023-03-01T07:56:06.665Z,101881.47
2023-03-01T07:59:08.156Z,101883.06
2023-03-01T08:02:11.582Z,101883.81
2023-03-01T08:05:13.146Z,101888.28
2023-03-01T08:08:14.633Z,101891.00
2023-03-01T08:11:16.508Z,101891.69
2023-03-01T08:14:18.031Z,101896.28
2023-03-01T08:17:19.555Z,101893.44
2023-03-01T08:20:21.027Z,101888.03
2023-03-01T08:23:22.673Z,101889.75
2023-03-01T08:26:24.311Z,101889.75
2023-03-01T08:29:25.811Z,101889.63
2023-03-01T08:32:27.474Z,101882.09
2023-03-01T08:35:29.067Z,101880.25
2023-03-01T08:38:30.601Z,101881.13
2023-03-01T08:41:32.152Z,101877.31
2023-03-01T08:44:34.505Z,101883.72
2023-03-01T08:47:36.273Z,101888.16
2023-03-01T08:50:37.755Z,101888.88
2023-03-01T08:53:39.725Z,101881.75
2023-03-01T08:56:41.616Z,101873.59
2023-03-01T08:59:43.097Z,101882.50
2023-03-01T09:02:44.777Z,101886.16
2023-03-01T09:05:46.869Z,101885.19
2023-03-01T09:08:49.987Z,101880.53
2023-03-01T09:11:51.802Z,101877.81
2023-03-01T09:14:53.278Z,101888.53
2023-03-01T09:17:54.825Z,101887.56
2023-03-01T09:21:09.045Z,101885.56
2023-03-01T09:24:15.476Z,101882.97
2023-03-01T09:27:19.584Z,101870.28
2023-03-01T09:30:21.816Z,101866.81
2023-03-01T09:33:23.369Z,101865.22
2023-03-01T09:36:29.858Z,101865.09
2023-03-01T09:39:32.900Z,101863.50
2023-03-01T09:42:36.878Z,101860.78
2023-03-01T09:45:45.090Z,101857.22
2023-03-01T09:48:58.163Z,101847.09
2023-03-01T09:52:04.044Z,101855.13
2023-03-01T09:55:15.323Z,101846.88
2023-03-01T09:58:43.915Z,101843.16
2023-03-01T10:02:00.276Z,101843.25
2023-03-01T10:05:20.050Z,101842.41
2023-03-01T10:08:31.905Z,101845.97
2023-03-01T10:11:45.894Z,101854.13
2023-03-01T10:15:25.079Z,101854.00
2023-03-01T10:18:30.209Z,101859.31
2023-03-01T10:21:34.646Z,101856.59
2023-03-01T10:24:37.601Z,101848.47
2023-03-01T10:27:47.801Z,101860.16
2023-03-01T10:30:49.405Z,101857.56
2023-03-01T10:33:55.718Z,101852.03
2023-03-01T10:37:11.534Z,101849.19
2023-03-01T10:40:13.181Z,101851.03
2023-03-01T10:43:14.717Z,101860.03
2023-03-01T10:46:42.720Z,101850.94
2023-03-01T10:50:21.865Z,101846.34
2023-03-01T10:53:38.978Z,101849.06
2023-03-01T10:56:55.302Z,101840.06
2023-03-01T11:00:20.658Z,101851.66
2023-03-01T11:03:26.799Z,101850.66
2023-03-01T11:06:28.273Z,101839.81
2023-03-01T11:09:38.516Z,101841.41
2023-03-01T11:12:40.518Z,101840.56
2023-03-01T11:15:43.113Z,101843.28
2023-03-01T11:18:57.455Z,101834.28
2023-03-01T11:22:25.457Z,101825.41
2023-03-01T11:25:32.594Z,101829.97
2023-03-01T11:28:39.107Z,101822.69
2023-03-01T11:31:56.776Z,101827.25
2023-03-01T11:35:02.743Z,101817.25
2023-03-01T11:38:26.885Z,101817.25
2023-03-01T11:41:32.806Z,101818.13
2023-03-01T11:44:38.752Z,101816.25
2023-03-01T11:47:57.689Z,101813.69
2023-03-01T11:51:06.522Z,101807.16
2023-03-01T11:54:34.163Z,101811.69
2023-03-01T11:57:57.570Z,101802.69
2023-03-01T12:01:14.185Z,101799.13
2023-03-01T12:04:21.743Z,101791.00
2023-03-01T12:07:41.938Z,101788.38
2023-03-01T12:10:59.064Z,101791.09
2023-03-01T12:14:05.994Z,101786.78
2023-03-01T12:17:44.849Z,101787.53
2023-03-01T12:21:12.921Z,101777.53
2023-03-01T12:24:51.527Z,101772.84
2023-03-01T12:28:11.426Z,101765.56
2023-03-01T12:31:15.896Z,101762.75
2023-03-01T12:34:53.208Z,101756.19
2023-03-01T12:38:02.640Z,101753.50
2023-03-01T12:41:21.290Z,101756.19
2023-03-01T12:44:52.516Z,101751.63
2023-03-01T12:48:16.454Z,101739.94
2023-03-01T12:51:24.826Z,101733.75
2023-03-01T12:54:32.412Z,101729.19
2023-03-01T12:57:46.659Z,101719.22
2023-03-01T13:01:03.100Z,101719.06
2023-03-01T13:04:17.797Z,101717.09
2023-03-01T13:07:36.203Z,101709.06
2023-03-01T13:10:50.744Z,101717.09
2023-03-01T13:13:55.323Z,101705.25
2023-03-01T13:16:56.868Z,101713.38
2023-03-01T13:19:59.953Z,101704.38
2023-03-01T13:23:26.448Z,101697.84
2023-03-01T13:26:27.946Z,101694.53
2023-03-01T13:29:44.232Z,101688.75
2023-03-01T13:32:45.895Z,101689.47
2023-03-01T13:35:47.489Z,101686.53
2023-03-01T13:39:01.352Z,101684.41
2023-03-01T13:42:02.931Z,101675.25
2023-03-01T13:45:15.137Z,101680.47
2023-03-01T13:48:25.013Z,101678.44
2023-03-01T13:51:29.030Z,101665.88
2023-03-01T13:54:32.852Z,101672.03
2023-03-01T13:57:37.423Z,101676.47
2023-03-01T14:00:40.638Z,101671.91
2023-03-01T14:03:43.120Z,101666.47
2023-03-01T14:06:44.644Z,101659.34
2023-03-01T14:09:51.465Z,101663.63
2023-03-01T14:13:16.212Z,101650.91
2023-03-01T14:16:44.337Z,101652.78
2023-03-01T14:19:49.318Z,101653.78
2023-03-01T14:22:55.361Z,101656.34
2023-03-01T14:25:59.022Z,101658.09
2023-03-01T14:29:00.568Z,101649.94
2023-03-01T14:32:27.275Z,101650.66
2023-03-01T14:35:36.738Z,101647.09
2023-03-01T14:38:39.692Z,101640.78
2023-03-01T14:41:41.324Z,101638.09
2023-03-01T14:44:54.962Z,101634.38
2023-03-01T14:48:01.287Z,101628.94
2023-03-01T14:51:06.253Z,101626.38
2023-03-01T14:54:28.692Z,101626.22
2023-03-01T14:57:30.167Z,101620.09
2023-03-01T15:00:34.169Z,101622.66
2023-03-01T15:03:38.344Z,101624.41
2023-03-01T15:06:40.354Z,101621.69
2023-03-01T15:09:42.463Z,101615.38
2023-03-01T15:12:43.960Z,101608.22
2023-03-01T15:15:49.402Z,101600.81
2023-03-01T15:19:01.527Z,101600.81
2023-03-01T15:22:13.019Z,101595.50
2023-03-01T15:25:19.812Z,101590.09
2023-03-01T15:28:21.621Z,101577.38
2023-03-01T15:31:26.750Z,101582.69
2023-03-01T15:34:33.358Z,101580.75
2023-03-01T15:37:48.762Z,101571.25
2023-03-01T15:40:51.311Z,101572.00
2023-03-01T15:43:56.327Z,101561.63
2023-03-01T15:46:58.624Z,101559.19
2023-03-01T15:50:01.126Z,101558.59
2023-03-01T15:53:11.904Z,101557.75
2023-03-01T15:56:15.116Z,101561.78
2023-03-01T15:59:17.131Z,101563.00
2023-03-01T16:02:21.792Z,101561.53
2023-03-01T16:05:27.302Z,101565.66
2023-03-01T16:08:29.056Z,101555.72
2023-03-01T16:11:30.608Z,101552.47
2023-03-01T16:14:32.117Z,101552.44
2023-03-01T16:17:33.601Z,101548.16
2023-03-01T16:20:35.447Z,101545.56
2023-03-01T16:23:36.906Z,101549.38
2023-03-01T16:26:38.707Z,101547.88
2023-03-01T16:29:40.390Z,101551.59
2023-03-01T16:32:43.995Z,101549.75
2023-03-01T16:35:45.759Z,101551.50
2023-03-01T16:38:47.624Z,101563.03
2023-03-01T16:41:51.272Z,101559.25
2023-03-01T16:44:56.823Z,101559.00
2023-03-01T16:47:58.376Z,101562.56
2023-03-01T16:51:01.401Z,101560.59
2023-03-01T16:54:05.384Z,101565.00
2023-03-01T16:57:06.891Z,101573.88
2023-03-01T17:00:10.711Z,101564.00
2023-03-01T17:03:14.671Z,101573.16
2023-03-01T17:06:21.162Z,101565.00
2023-03-01T17:09:22.993Z,101562.41
2023-03-01T17:12:24.456Z,101565.28
2023-03-01T17:15:26.093Z,101574.28
2023-03-01T17:18:27.736Z,101572.41
2023-03-01T17:21:29.658Z,101575.97
2023-03-01T17:24:38.796Z,101568.56
2023-03-01T17:27:40.966Z,101570.44
2023-03-01T17:30:44.950Z,101568.56
2023-03-01T17:33:46.471Z,101577.72
2023-03-01T17:36:50.427Z,101584.00
2023-03-01T17:39:51.966Z,101589.53
2023-03-01T17:42:53.423Z,101594.97
2023-03-01T17:45:56.070Z,101594.97
2023-03-01T17:48:57.660Z,101596.84
2023-03-01T17:51:59.256Z,101596.84
2023-03-01T17:55:00.770Z,101601.41
2023-03-01T17:58:02.301Z,101596.84
2023-03-01T18:01:17.862Z,101594.97
2023-03-01T18:04:20.281Z,101593.25
2023-03-01T18:07:21.781Z,101591.56
2023-03-01T18:10:23.339Z,101587.84
2023-03-01T18:13:24.955Z,101586.84
2023-03-01T18:16:28.033Z,101593.16
2023-03-01T18:19:29.647Z,101585.88
2023-03-01T18:22:32.396Z,101592.13
2023-03-01T18:25:33.947Z,101586.84
2023-03-01T18:28:36.130Z,101588.56
2023-03-01T18:31:37.721Z,101578.69
2023-03-01T18:34:39.644Z,101575.88
2023-03-01T18:37:41.204Z,101570.56
2023-03-01T18:40:43.505Z,101574.16
2023-03-01T18:43:45.215Z,101575.97
2023-03-01T18:46:47.153Z,101574.16
2023-03-01T18:49:48.642Z,101572.28
2023-03-01T18:52:50.152Z,101570.44
2023-03-01T18:55:51.661Z,101576.72
2023-03-01T18:58:53.153Z,101578.56
2023-03-01T19:01:54.706Z,101581.28
2023-03-01T19:04:56.232Z,101586.59
2023-03-01T19:07:57.903Z,101585.59
2023-03-01T19:11:02.204Z,101575.59
2023-03-01T19:14:04.782Z,101588.19
2023-03-01T19:17:06.380Z,101581.75
2023-03-01T19:20:08.727Z,101579.88
2023-03-01T19:23:13.350Z,101587.06
2023-03-01T19:26:17.511Z,101582.59
2023-03-01T19:29:18.988Z,101586.19
2023-03-01T19:32:20.625Z,101584.34
2023-03-01T19:35:23.320Z,101585.31
2023-03-01T19:38:25.650Z,101591.59
2023-03-01T19:41:27.234Z,101591.59
2023-03-01T19:44:28.767Z,101592.50
2023-03-01T19:47:30.306Z,101606.91
2023-03-01T19:50:31.802Z,101597.91
2023-03-01T19:53:33.725Z,101591.59
2023-03-01T19:56:35.795Z,101587.91
2023-03-01T19:59:37.571Z,101594.31
2023-03-01T20:02:39.529Z,101595.31
2023-03-01T20:05:42.761Z,101592.72
2023-03-01T20:08:44.577Z,101590.91
2023-03-01T20:11:46.287Z,101599.91
2023-03-01T20:14:48.706Z,101599.16
2023-03-01T20:17:50.235Z,101595.44
2023-03-01T20:20:52.009Z,101585.59
2023-03-01T20:23:54.203Z,101581.16
2023-03-01T20:26:55.668Z,101582.28
2023-03-01T20:29:57.228Z,101593.25
2023-03-01T20:32:58.759Z,101587.97
2023-03-01T20:36:00.519Z,101588.97
2023-03-01T20:39:01.974Z,101582.81
2023-03-01T20:42:03.632Z,101582.69
2023-03-01T20:45:05.740Z,101580.09
2023-03-01T20:48:07.213Z,101577.38
2023-03-01T20:51:09.572Z,101581.81
2023-03-01T20:54:11.240Z,101571.84
2023-03-01T20:57:12.800Z,101571.84
2023-03-01T21:00:14.611Z,101582.69
2023-03-01T21:03:16.165Z,101578.84
2023-03-01T21:06:17.835Z,101579.69
2023-03-01T21:09:19.424Z,101578.69
2023-03-01T21:12:20.990Z,101580.44
2023-03-01T21:15:29.059Z,101575.88
2023-03-01T21:18:32.650Z,101572.13
2023-03-01T21:21:34.193Z,101575.88
2023-03-01T21:24:35.814Z,101572.41
2023-03-01T21:27:38.037Z,101573.25
2023-03-01T21:30:39.529Z,101573.25
2023-03-01T21:33:45.724Z,101563.41
2023-03-01T21:36:47.209Z,101563.53
2023-03-01T21:39:48.706Z,101559.13
2023-03-01T21:42:50.311Z,101556.53
2023-03-01T21:45:51.874Z,101562.94
2023-03-01T21:48:54.804Z,101562.94
2023-03-01T21:51:56.366Z,101561.44
2023-03-01T21:55:01.860Z,101561.59
2023-03-01T21:58:03.376Z,101554.44
2023-03-01T22:01:11.876Z,101556.28
2023-03-01T22:04:14.412Z,101558.28
2023-03-01T22:07:15.889Z,101567.53
2023-03-01T22:10:26.729Z,101563.97
2023-03-01T22:13:28.220Z,101555.25
2023-03-01T22:16:32.609Z,101563.38
2023-03-01T22:19:37.307Z,101555.50
2023-03-01T22:22:38.760Z,101551.22
2023-03-01T22:25:42.347Z,101547.63
2023-03-01T22:28:45.543Z,101544.19
2023-03-01T22:31:47.597Z,101547.88
2023-03-01T22:34:49.126Z,101544.31
2023-03-01T22:37:50.615Z,101538.03
2023-03-01T22:40:59.805Z,101531.59
2023-03-01T22:44:01.309Z,101530.88
2023-03-01T22:47:02.798Z,101534.59
2023-03-01T22:50:06.837Z,101523.84
2023-03-01T22:53:08.351Z,101529.44
2023-03-01T22:56:11.899Z,101517.72
2023-03-01T22:59:15.972Z,101515.03
2023-03-01T23:02:17.557Z,101501.56
2023-03-01T23:05:19.182Z,101510.72
2023-03-01T23:08:20.834Z,101521.56
2023-03-01T23:11:24.628Z,101523.41
2023-03-01T23:14:29.015Z,101533.38
2023-03-01T23:17:30.536Z,101521.81
2023-03-01T23:20:35.956Z,101527.22
2023-03-01T23:23:38.289Z,101522.81
2023-03-01T23:26:40.442Z,101524.78
2023-03-01T23:29:43.434Z,101520.38
2023-03-01T23:32:44.946Z,101520.38
2023-03-01T23:35:46.402Z,101511.38
2023-03-01T23:38:51.099Z,101513.09
2023-03-01T23:41:52.612Z,101513.19
2023-03-01T23:44:54.388Z,101516.78
2023-03-01T23:47:56.489Z,101521.22
2023-03-01T23:51:04.080Z,101523.94
2023-03-01T23:54:05.958Z,101519.63
2023-03-01T23:57:07.411Z,101512.50
